sensor_id;sensor_type;location;lat;lon;timestamp;P1;durP1;ratioP1;P2;durP2;ratioP2
15198;SDS011;7700;48.654;9.070;2023-12-14T00:00:46;7.83;;;7.43;;
15198;SDS011;7700;48.654;9.070;2023-12-14T00:03:12;9.00;;;8.60;;
15198;SDS011;7700;48.654;9.070;2023-12-14T00:05:38;8.03;;;7.63;;
15198;SDS011;7700;48.654;9.070;2023-12-14T00:08:04;6.77;;;6.43;;
15198;SDS011;7700;48.654;9.070;2023-12-14T00:10:30;5.00;;;4.80;;
15198;SDS011;7700;48.654;9.070;2023-12-14T00:12:56;7.97;;;7.63;;
15198;SDS011;7700;48.654;9.070;2023-12-14T00:15:22;7.43;;;7.10;;
15198;SDS011;7700;48.654;9.070;2023-12-14T00:17:48;8.57;;;8.20;;
15198;SDS011;7700;48.654;9.070;2023-12-14T00:20:14;8.77;;;8.37;;
15198;SDS011;7700;48.654;9.070;2023-12-14T00:22:40;10.77;;;10.20;;
15198;SDS011;7700;48.654;9.070;2023-12-14T00:25:06;9.20;;;8.83;;
15198;SDS011;7700;48.654;9.070;2023-12-14T00:27:32;7.30;;;7.00;;
15198;SDS011;7700;48.654;9.070;2023-12-14T00:29:58;9.73;;;9.33;;
15198;SDS011;7700;48.654;9.070;2023-12-14T00:32:24;12.53;;;11.97;;
15198;SDS011;7700;48.654;9.070;2023-12-14T00:34:50;10.70;;;10.20;;
15198;SDS011;7700;48.654;9.070;2023-12-14T00:37:16;11.43;;;10.93;;
15198;SDS011;7700;48.654;9.070;2023-12-14T00:39:42;9.70;;;9.23;;
15198;SDS011;7700;48.654;9.070;2023-12-14T00:42:08;7.33;;;6.97;;
15198;SDS011;7700;48.654;9.070;2023-12-14T00:44:34;10.77;;;10.10;;
15198;SDS011;7700;48.654;9.070;2023-12-14T00:47:00;8.80;;;8.40;;
15198;SDS011;7700;48.654;9.070;2023-12-14T00:49:27;11.43;;;10.90;;
15198;SDS011;7700;48.654;9.070;2023-12-14T00:51:53;9.20;;;8.73;;
15198;SDS011;7700;48.654;9.070;2023-12-14T00:54:19;12.50;;;11.73;;
15198;SDS011;7700;48.654;9.070;2023-12-14T00:56:45;8.93;;;8.53;;
15198;SDS011;7700;48.654;9.070;2023-12-14T00:59:11;12.30;;;11.67;;
15198;SDS011;7700;48.654;9.070;2023-12-14T01:01:37;9.83;;;9.37;;
15198;SDS011;7700;48.654;9.070;2023-12-14T01:04:03;10.13;;;9.67;;
15198;SDS011;7700;48.654;9.070;2023-12-14T01:06:29;9.23;;;8.83;;
15198;SDS011;7700;48.654;9.070;2023-12-14T01:08:55;8.07;;;7.73;;
15198;SDS011;7700;48.654;9.070;2023-12-14T01:11:21;8.57;;;8.17;;
15198;SDS011;7700;48.654;9.070;2023-12-14T01:13:47;8.90;;;8.40;;
15198;SDS011;7700;48.654;9.070;2023-12-14T01:16:13;9.63;;;9.17;;
15198;SDS011;7700;48.654;9.070;2023-12-14T01:18:39;9.40;;;8.93;;
15198;SDS011;7700;48.654;9.070;2023-12-14T01:21:05;7.93;;;7.53;;
15198;SDS011;7700;48.654;9.070;2023-12-14T01:23:31;12.67;;;12.00;;
15198;SDS011;7700;48.654;9.070;2023-12-14T01:25:57;11.33;;;10.83;;
15198;SDS011;7700;48.654;9.070;2023-12-14T01:28:23;9.00;;;8.60;;
15198;SDS011;7700;48.654;9.070;2023-12-14T01:30:49;11.77;;;11.27;;
15198;SDS011;7700;48.654;9.070;2023-12-14T01:33:15;9.63;;;9.13;;
15198;SDS011;7700;48.654;9.070;2023-12-14T01:35:41;9.80;;;9.30;;
15198;SDS011;7700;48.654;9.070;2023-12-14T01:38:07;11.80;;;11.17;;
15198;SDS011;7700;48.654;9.070;2023-12-14T01:40:33;7.73;;;7.33;;
15198;SDS011;7700;48.654;9.070;2023-12-14T01:43:08;10.90;;;10.40;;
15198;SDS011;7700;48.654;9.070;2023-12-14T01:45:38;9.10;;;8.60;;
15198;SDS011;7700;48.654;9.070;2023-12-14T01:48:04;9.97;;;9.57;;
15198;SDS011;7700;48.654;9.070;2023-12-14T01:50:30;10.33;;;9.73;;
15198;SDS011;7700;48.654;9.070;2023-12-14T01:52:57;9.20;;;8.80;;
15198;SDS011;7700;48.654;9.070;2023-12-14T01:55:23;11.93;;;11.43;;
15198;SDS011;7700;48.654;9.070;2023-12-14T01:57:50;8.10;;;7.80;;
15198;SDS011;7700;48.654;9.070;2023-12-14T02:00:22;9.07;;;8.67;;
15198;SDS011;7700;48.654;9.070;2023-12-14T02:02:49;10.30;;;9.83;;
15198;SDS011;7700;48.654;9.070;2023-12-14T02:05:15;11.00;;;10.43;;
15198;SDS011;7700;48.654;9.070;2023-12-14T02:07:41;10.37;;;9.90;;
15198;SDS011;7700;48.654;9.070;2023-12-14T02:10:07;9.83;;;9.30;;
15198;SDS011;7700;48.654;9.070;2023-12-14T02:12:33;9.47;;;9.07;;
15198;SDS011;7700;48.654;9.070;2023-12-14T02:15:00;10.00;;;9.50;;
15198;SDS011;7700;48.654;9.070;2023-12-14T02:17:26;10.90;;;10.37;;
15198;SDS011;7700;48.654;9.070;2023-12-14T02:19:52;10.40;;;9.90;;
15198;SDS011;7700;48.654;9.070;2023-12-14T02:22:18;11.80;;;11.23;;
15198;SDS011;7700;48.654;9.070;2023-12-14T02:24:44;9.47;;;9.07;;
15198;SDS011;7700;48.654;9.070;2023-12-14T02:27:10;11.03;;;10.40;;
15198;SDS011;7700;48.654;9.070;2023-12-14T02:29:36;8.97;;;8.57;;
15198;SDS011;7700;48.654;9.070;2023-12-14T02:32:01;7.37;;;7.03;;
15198;SDS011;7700;48.654;9.070;2023-12-14T02:34:28;10.13;;;9.47;;
15198;SDS011;7700;48.654;9.070;2023-12-14T02:36:53;9.73;;;9.33;;
15198;SDS011;7700;48.654;9.070;2023-12-14T02:39:19;8.50;;;8.10;;
15198;SDS011;7700;48.654;9.070;2023-12-14T02:41:45;9.97;;;9.53;;
15198;SDS011;7700;48.654;9.070;2023-12-14T02:44:11;10.37;;;9.83;;
15198;SDS011;7700;48.654;9.070;2023-12-14T02:46:37;11.47;;;10.97;;
15198;SDS011;7700;48.654;9.070;2023-12-14T02:49:03;11.43;;;10.83;;
15198;SDS011;7700;48.654;9.070;2023-12-14T02:51:29;9.63;;;9.13;;
15198;SDS011;7700;48.654;9.070;2023-12-14T02:53:55;10.23;;;9.63;;
15198;SDS011;7700;48.654;9.070;2023-12-14T02:56:22;11.33;;;10.70;;
15198;SDS011;7700;48.654;9.070;2023-12-14T02:58:48;11.80;;;11.10;;
15198;SDS011;7700;48.654;9.070;2023-12-14T03:01:18;10.23;;;9.63;;
15198;SDS011;7700;48.654;9.070;2023-12-14T03:03:45;9.57;;;9.03;;
15198;SDS011;7700;48.654;9.070;2023-12-14T03:06:11;11.23;;;10.53;;
15198;SDS011;7700;48.654;9.070;2023-12-14T03:08:37;9.67;;;9.07;;
15198;SDS011;7700;48.654;9.070;2023-12-14T03:13:32;11.03;;;10.50;;
15198;SDS011;7700;48.654;9.070;2023-12-14T03:15:58;9.30;;;8.67;;
15198;SDS011;7700;48.654;9.070;2023-12-14T03:18:25;8.23;;;7.70;;
15198;SDS011;7700;48.654;9.070;2023-12-14T03:20:51;8.03;;;7.53;;
15198;SDS011;7700;48.654;9.070;2023-12-14T03:23:16;9.37;;;8.70;;
15198;SDS011;7700;48.654;9.070;2023-12-14T03:25:42;10.03;;;9.30;;
15198;SDS011;7700;48.654;9.070;2023-12-14T03:28:08;10.73;;;10.13;;
15198;SDS011;7700;48.654;9.070;2023-12-14T03:30:34;9.87;;;8.90;;
15198;SDS011;7700;48.654;9.070;2023-12-14T03:33:00;14.67;;;13.67;;
15198;SDS011;7700;48.654;9.070;2023-12-14T03:35:26;15.47;;;14.23;;
15198;SDS011;7700;48.654;9.070;2023-12-14T03:37:52;14.90;;;13.80;;
15198;SDS011;7700;48.654;9.070;2023-12-14T03:40:18;12.03;;;11.23;;
15198;SDS011;7700;48.654;9.070;2023-12-14T03:42:44;12.73;;;11.93;;
15198;SDS011;7700;48.654;9.070;2023-12-14T03:45:10;10.83;;;10.13;;
15198;SDS011;7700;48.654;9.070;2023-12-14T03:47:36;11.87;;;11.07;;
15198;SDS011;7700;48.654;9.070;2023-12-14T03:50:02;11.73;;;11.03;;
15198;SDS011;7700;48.654;9.070;2023-12-14T03:52:28;11.30;;;10.63;;
15198;SDS011;7700;48.654;9.070;2023-12-14T03:54:56;10.90;;;10.27;;
15198;SDS011;7700;48.654;9.070;2023-12-14T03:57:22;10.03;;;9.37;;
15198;SDS011;7700;48.654;9.070;2023-12-14T03:59:48;14.27;;;13.33;;
15198;SDS011;7700;48.654;9.070;2023-12-14T04:02:14;12.80;;;12.07;;
15198;SDS011;7700;48.654;9.070;2023-12-14T04:04:40;11.93;;;11.23;;
15198;SDS011;7700;48.654;9.070;2023-12-14T04:07:06;11.20;;;10.60;;
15198;SDS011;7700;48.654;9.070;2023-12-14T04:09:32;12.67;;;11.83;;
15198;SDS011;7700;48.654;9.070;2023-12-14T04:11:58;9.50;;;8.90;;
15198;SDS011;7700;48.654;9.070;2023-12-14T04:14:23;12.60;;;11.70;;
15198;SDS011;7700;48.654;9.070;2023-12-14T04:16:49;14.37;;;13.47;;
15198;SDS011;7700;48.654;9.070;2023-12-14T04:19:15;10.83;;;10.23;;
15198;SDS011;7700;48.654;9.070;2023-12-14T04:21:41;11.17;;;10.47;;
15198;SDS011;7700;48.654;9.070;2023-12-14T04:24:07;9.80;;;9.20;;
15198;SDS011;7700;48.654;9.070;2023-12-14T04:26:34;13.90;;;12.93;;
15198;SDS011;7700;48.654;9.070;2023-12-14T04:29:00;11.27;;;10.57;;
15198;SDS011;7700;48.654;9.070;2023-12-14T04:31:26;10.63;;;10.03;;
15198;SDS011;7700;48.654;9.070;2023-12-14T04:33:52;11.17;;;10.47;;
15198;SDS011;7700;48.654;9.070;2023-12-14T04:36:18;12.80;;;12.07;;
15198;SDS011;7700;48.654;9.070;2023-12-14T04:38:43;12.43;;;11.63;;
15198;SDS011;7700;48.654;9.070;2023-12-14T04:41:11;11.53;;;10.77;;
15198;SDS011;7700;48.654;9.070;2023-12-14T04:43:37;13.17;;;12.37;;
15198;SDS011;7700;48.654;9.070;2023-12-14T04:46:03;9.77;;;9.03;;
15198;SDS011;7700;48.654;9.070;2023-12-14T04:48:31;13.23;;;12.43;;
15198;SDS011;7700;48.654;9.070;2023-12-14T04:50:56;13.07;;;12.27;;
15198;SDS011;7700;48.654;9.070;2023-12-14T04:53:22;15.63;;;14.60;;
15198;SDS011;7700;48.654;9.070;2023-12-14T04:55:48;13.07;;;11.87;;
15198;SDS011;7700;48.654;9.070;2023-12-14T04:58:14;13.53;;;12.43;;
15198;SDS011;7700;48.654;9.070;2023-12-14T05:00:40;11.90;;;10.90;;
15198;SDS011;7700;48.654;9.070;2023-12-14T05:03:06;11.77;;;10.80;;
15198;SDS011;7700;48.654;9.070;2023-12-14T05:05:32;12.70;;;11.70;;
15198;SDS011;7700;48.654;9.070;2023-12-14T05:07:58;14.33;;;13.33;;
15198;SDS011;7700;48.654;9.070;2023-12-14T05:10:24;13.50;;;12.60;;
15198;SDS011;7700;48.654;9.070;2023-12-14T05:12:50;13.13;;;12.27;;
15198;SDS011;7700;48.654;9.070;2023-12-14T05:15:16;15.13;;;14.13;;
15198;SDS011;7700;48.654;9.070;2023-12-14T05:17:42;14.63;;;13.63;;
15198;SDS011;7700;48.654;9.070;2023-12-14T05:20:08;17.63;;;16.43;;
15198;SDS011;7700;48.654;9.070;2023-12-14T05:22:34;15.60;;;14.40;;
15198;SDS011;7700;48.654;9.070;2023-12-14T05:25:00;16.53;;;15.33;;
15198;SDS011;7700;48.654;9.070;2023-12-14T05:27:26;14.97;;;13.93;;
15198;SDS011;7700;48.654;9.070;2023-12-14T05:29:52;16.53;;;15.47;;
15198;SDS011;7700;48.654;9.070;2023-12-14T05:32:18;14.63;;;13.73;;
15198;SDS011;7700;48.654;9.070;2023-12-14T05:34:43;14.37;;;13.37;;
15198;SDS011;7700;48.654;9.070;2023-12-14T05:37:09;14.93;;;13.93;;
15198;SDS011;7700;48.654;9.070;2023-12-14T05:39:35;12.83;;;12.03;;
15198;SDS011;7700;48.654;9.070;2023-12-14T05:42:02;12.97;;;12.03;;
15198;SDS011;7700;48.654;9.070;2023-12-14T05:44:28;12.13;;;11.13;;
15198;SDS011;7700;48.654;9.070;2023-12-14T05:46:54;11.13;;;10.23;;
15198;SDS011;7700;48.654;9.070;2023-12-14T05:49:20;13.50;;;12.50;;
15198;SDS011;7700;48.654;9.070;2023-12-14T05:51:45;11.03;;;10.13;;
15198;SDS011;7700;48.654;9.070;2023-12-14T05:54:11;9.57;;;8.77;;
15198;SDS011;7700;48.654;9.070;2023-12-14T05:56:37;13.03;;;12.03;;
15198;SDS011;7700;48.654;9.070;2023-12-14T05:59:03;12.40;;;11.40;;
15198;SDS011;7700;48.654;9.070;2023-12-14T06:01:29;11.43;;;10.53;;
15198;SDS011;7700;48.654;9.070;2023-12-14T06:03:55;10.60;;;9.80;;
15198;SDS011;7700;48.654;9.070;2023-12-14T06:06:21;13.37;;;12.17;;
15198;SDS011;7700;48.654;9.070;2023-12-14T06:08:48;12.23;;;11.33;;
15198;SDS011;7700;48.654;9.070;2023-12-14T06:11:14;11.87;;;10.87;;
15198;SDS011;7700;48.654;9.070;2023-12-14T06:13:40;11.77;;;10.83;;
15198;SDS011;7700;48.654;9.070;2023-12-14T06:16:06;12.70;;;11.60;;
15198;SDS011;7700;48.654;9.070;2023-12-14T06:18:37;14.00;;;12.70;;
15198;SDS011;7700;48.654;9.070;2023-12-14T06:21:07;15.07;;;13.60;;
15198;SDS011;7700;48.654;9.070;2023-12-14T06:23:35;17.23;;;15.80;;
15198;SDS011;7700;48.654;9.070;2023-12-14T06:26:02;15.47;;;14.03;;
15198;SDS011;7700;48.654;9.070;2023-12-14T06:28:29;14.73;;;13.47;;
15198;SDS011;7700;48.654;9.070;2023-12-14T06:30:58;17.00;;;15.70;;
15198;SDS011;7700;48.654;9.070;2023-12-14T06:33:26;16.30;;;15.00;;
15198;SDS011;7700;48.654;9.070;2023-12-14T06:35:52;14.67;;;13.47;;
15198;SDS011;7700;48.654;9.070;2023-12-14T06:38:18;14.30;;;13.07;;
15198;SDS011;7700;48.654;9.070;2023-12-14T06:40:44;13.17;;;12.00;;
15198;SDS011;7700;48.654;9.070;2023-12-14T06:43:10;14.00;;;12.90;;
15198;SDS011;7700;48.654;9.070;2023-12-14T06:45:37;14.80;;;13.67;;
15198;SDS011;7700;48.654;9.070;2023-12-14T06:48:03;15.50;;;14.33;;
15198;SDS011;7700;48.654;9.070;2023-12-14T06:50:29;13.23;;;12.03;;
15198;SDS011;7700;48.654;9.070;2023-12-14T06:52:55;12.10;;;11.00;;
15198;SDS011;7700;48.654;9.070;2023-12-14T06:55:21;13.57;;;12.53;;
15198;SDS011;7700;48.654;9.070;2023-12-14T06:57:47;10.57;;;9.80;;
15198;SDS011;7700;48.654;9.070;2023-12-14T07:00:13;11.77;;;10.97;;
15198;SDS011;7700;48.654;9.070;2023-12-14T07:02:39;9.83;;;8.93;;
15198;SDS011;7700;48.654;9.070;2023-12-14T07:05:05;10.90;;;10.03;;
15198;SDS011;7700;48.654;9.070;2023-12-14T07:07:31;14.03;;;12.83;;
15198;SDS011;7700;48.654;9.070;2023-12-14T07:09:57;18.23;;;16.80;;
15198;SDS011;7700;48.654;9.070;2023-12-14T07:12:23;13.53;;;12.47;;
15198;SDS011;7700;48.654;9.070;2023-12-14T07:14:49;10.17;;;9.37;;
15198;SDS011;7700;48.654;9.070;2023-12-14T07:17:15;11.67;;;10.90;;
15198;SDS011;7700;48.654;9.070;2023-12-14T07:19:41;11.83;;;10.93;;
15198;SDS011;7700;48.654;9.070;2023-12-14T07:22:07;18.97;;;17.17;;
15198;SDS011;7700;48.654;9.070;2023-12-14T07:24:33;14.20;;;13.03;;
15198;SDS011;7700;48.654;9.070;2023-12-14T07:26:59;12.03;;;11.13;;
15198;SDS011;7700;48.654;9.070;2023-12-14T07:29:25;9.77;;;8.97;;
15198;SDS011;7700;48.654;9.070;2023-12-14T07:31:52;12.80;;;12.00;;
15198;SDS011;7700;48.654;9.070;2023-12-14T07:34:17;13.13;;;12.17;;
15198;SDS011;7700;48.654;9.070;2023-12-14T07:36:45;13.00;;;12.00;;
15198;SDS011;7700;48.654;9.070;2023-12-14T07:39:11;10.30;;;9.50;;
15198;SDS011;7700;48.654;9.070;2023-12-14T07:41:37;11.50;;;10.70;;
15198;SDS011;7700;48.654;9.070;2023-12-14T07:44:03;9.43;;;8.73;;
15198;SDS011;7700;48.654;9.070;2023-12-14T07:46:29;7.30;;;6.80;;
15198;SDS011;7700;48.654;9.070;2023-12-14T07:48:55;7.93;;;7.37;;
15198;SDS011;7700;48.654;9.070;2023-12-14T07:51:21;9.93;;;9.27;;
15198;SDS011;7700;48.654;9.070;2023-12-14T07:53:47;9.93;;;9.13;;
15198;SDS011;7700;48.654;9.070;2023-12-14T07:56:13;9.93;;;9.07;;
15198;SDS011;7700;48.654;9.070;2023-12-14T07:58:39;10.13;;;9.33;;
15198;SDS011;7700;48.654;9.070;2023-12-14T08:01:05;8.30;;;7.70;;
15198;SDS011;7700;48.654;9.070;2023-12-14T08:03:31;8.70;;;8.00;;
15198;SDS011;7700;48.654;9.070;2023-12-14T08:05:57;6.97;;;6.47;;
15198;SDS011;7700;48.654;9.070;2023-12-14T08:08:23;8.33;;;7.63;;
15198;SDS011;7700;48.654;9.070;2023-12-14T08:10:49;7.50;;;7.00;;
15198;SDS011;7700;48.654;9.070;2023-12-14T08:13:15;7.73;;;7.03;;
15198;SDS011;7700;48.654;9.070;2023-12-14T08:15:41;7.30;;;6.70;;
15198;SDS011;7700;48.654;9.070;2023-12-14T08:18:07;4.93;;;4.63;;
15198;SDS011;7700;48.654;9.070;2023-12-14T08:20:33;6.00;;;5.60;;
15198;SDS011;7700;48.654;9.070;2023-12-14T08:22:59;5.30;;;5.00;;
15198;SDS011;7700;48.654;9.070;2023-12-14T08:25:25;6.37;;;5.97;;
15198;SDS011;7700;48.654;9.070;2023-12-14T08:27:51;8.10;;;7.57;;
15198;SDS011;7700;48.654;9.070;2023-12-14T08:30:17;7.30;;;6.67;;
15198;SDS011;7700;48.654;9.070;2023-12-14T08:32:43;7.47;;;6.93;;
15198;SDS011;7700;48.654;9.070;2023-12-14T08:35:09;6.13;;;5.73;;
15198;SDS011;7700;48.654;9.070;2023-12-14T08:37:35;7.43;;;6.83;;
15198;SDS011;7700;48.654;9.070;2023-12-14T08:40:02;6.90;;;6.40;;
15198;SDS011;7700;48.654;9.070;2023-12-14T08:42:28;8.17;;;7.57;;
15198;SDS011;7700;48.654;9.070;2023-12-14T08:44:54;5.60;;;5.23;;
15198;SDS011;7700;48.654;9.070;2023-12-14T08:47:20;8.13;;;7.63;;
15198;SDS011;7700;48.654;9.070;2023-12-14T08:49:46;8.07;;;7.43;;
15198;SDS011;7700;48.654;9.070;2023-12-14T08:52:12;9.80;;;9.00;;
15198;SDS011;7700;48.654;9.070;2023-12-14T08:54:39;10.93;;;10.10;;
15198;SDS011;7700;48.654;9.070;2023-12-14T08:57:07;14.37;;;13.17;;
15198;SDS011;7700;48.654;9.070;2023-12-14T08:59:33;10.50;;;9.87;;
15198;SDS011;7700;48.654;9.070;2023-12-14T09:01:59;10.53;;;9.90;;
15198;SDS011;7700;48.654;9.070;2023-12-14T09:04:25;12.77;;;11.97;;
15198;SDS011;7700;48.654;9.070;2023-12-14T09:06:52;12.43;;;11.80;;
15198;SDS011;7700;48.654;9.070;2023-12-14T09:09:17;13.83;;;13.07;;
15198;SDS011;7700;48.654;9.070;2023-12-14T09:11:44;8.73;;;8.23;;
15198;SDS011;7700;48.654;9.070;2023-12-14T09:14:10;10.33;;;9.63;;
15198;SDS011;7700;48.654;9.070;2023-12-14T09:16:36;12.13;;;11.53;;
15198;SDS011;7700;48.654;9.070;2023-12-14T09:19:02;13.63;;;12.80;;
15198;SDS011;7700;48.654;9.070;2023-12-14T09:21:29;12.13;;;11.33;;
15198;SDS011;7700;48.654;9.070;2023-12-14T09:23:55;15.83;;;14.93;;
15198;SDS011;7700;48.654;9.070;2023-12-14T09:26:21;11.83;;;11.07;;
15198;SDS011;7700;48.654;9.070;2023-12-14T09:28:47;16.60;;;15.73;;
15198;SDS011;7700;48.654;9.070;2023-12-14T09:31:13;10.77;;;10.17;;
15198;SDS011;7700;48.654;9.070;2023-12-14T09:33:41;12.73;;;11.93;;
15198;SDS011;7700;48.654;9.070;2023-12-14T09:36:07;12.30;;;11.50;;
15198;SDS011;7700;48.654;9.070;2023-12-14T09:38:33;12.97;;;12.17;;
15198;SDS011;7700;48.654;9.070;2023-12-14T09:41:01;11.93;;;11.10;;
15198;SDS011;7700;48.654;9.070;2023-12-14T09:43:27;12.77;;;12.03;;
15198;SDS011;7700;48.654;9.070;2023-12-14T09:45:54;11.93;;;11.23;;
15198;SDS011;7700;48.654;9.070;2023-12-14T09:48:20;12.10;;;11.30;;
15198;SDS011;7700;48.654;9.070;2023-12-14T09:50:47;13.63;;;12.73;;
15198;SDS011;7700;48.654;9.070;2023-12-14T09:53:14;13.67;;;12.67;;
15198;SDS011;7700;48.654;9.070;2023-12-14T09:55:41;16.53;;;15.23;;
15198;SDS011;7700;48.654;9.070;2023-12-14T09:58:07;14.83;;;13.87;;
15198;SDS011;7700;48.654;9.070;2023-12-14T10:03:33;12.47;;;11.70;;
15198;SDS011;7700;48.654;9.070;2023-12-14T10:05:59;14.93;;;14.10;;
15198;SDS011;7700;48.654;9.070;2023-12-14T10:08:26;13.30;;;12.63;;
15198;SDS011;7700;48.654;9.070;2023-12-14T10:10:54;13.23;;;12.43;;
15198;SDS011;7700;48.654;9.070;2023-12-14T10:13:21;10.50;;;9.93;;
15198;SDS011;7700;48.654;9.070;2023-12-14T10:15:48;14.97;;;14.13;;
15198;SDS011;7700;48.654;9.070;2023-12-14T10:18:21;15.57;;;14.77;;
15198;SDS011;7700;48.654;9.070;2023-12-14T10:20:47;11.70;;;11.10;;
15198;SDS011;7700;48.654;9.070;2023-12-14T10:23:13;13.00;;;12.23;;
15198;SDS011;7700;48.654;9.070;2023-12-14T10:25:39;15.10;;;14.33;;
15198;SDS011;7700;48.654;9.070;2023-12-14T10:31:10;17.77;;;16.67;;
15198;SDS011;7700;48.654;9.070;2023-12-14T10:33:37;21.90;;;20.57;;
15198;SDS011;7700;48.654;9.070;2023-12-14T10:36:03;22.60;;;21.17;;
15198;SDS011;7700;48.654;9.070;2023-12-14T10:38:29;20.80;;;19.43;;
15198;SDS011;7700;48.654;9.070;2023-12-14T10:40:55;21.20;;;19.83;;
15198;SDS011;7700;48.654;9.070;2023-12-14T10:43:24;25.33;;;23.67;;
15198;SDS011;7700;48.654;9.070;2023-12-14T10:45:50;18.10;;;16.87;;
15198;SDS011;7700;48.654;9.070;2023-12-14T10:48:19;21.50;;;20.37;;
15198;SDS011;7700;48.654;9.070;2023-12-14T10:50:45;22.00;;;20.73;;
15198;SDS011;7700;48.654;9.070;2023-12-14T10:53:12;21.77;;;20.40;;
15198;SDS011;7700;48.654;9.070;2023-12-14T10:55:42;21.20;;;20.03;;
15198;SDS011;7700;48.654;9.070;2023-12-14T10:58:09;21.90;;;20.63;;
15198;SDS011;7700;48.654;9.070;2023-12-14T11:00:35;21.43;;;19.83;;
15198;SDS011;7700;48.654;9.070;2023-12-14T11:03:03;23.73;;;22.03;;
15198;SDS011;7700;48.654;9.070;2023-12-14T11:05:30;19.93;;;18.33;;
15198;SDS011;7700;48.654;9.070;2023-12-14T11:08:02;18.63;;;17.30;;
15198;SDS011;7700;48.654;9.070;2023-12-14T11:10:35;21.80;;;20.00;;
15198;SDS011;7700;48.654;9.070;2023-12-14T11:13:11;24.37;;;22.87;;
15198;SDS011;7700;48.654;9.070;2023-12-14T11:15:48;18.57;;;17.30;;
15198;SDS011;7700;48.654;9.070;2023-12-14T11:23:10;27.40;;;25.20;;
15198;SDS011;7700;48.654;9.070;2023-12-14T11:25:38;30.10;;;27.42;;
15198;SDS011;7700;48.654;9.070;2023-12-14T11:28:06;29.20;;;26.45;;
15198;SDS011;7700;48.654;9.070;2023-12-14T11:30:35;28.13;;;25.27;;
15198;SDS011;7700;48.654;9.070;2023-12-14T11:33:02;36.70;;;33.40;;
15198;SDS011;7700;48.654;9.070;2023-12-14T11:35:28;32.92;;;29.63;;
15198;SDS011;7700;48.654;9.070;2023-12-14T11:37:55;30.65;;;28.00;;
15198;SDS011;7700;48.654;9.070;2023-12-14T11:40:27;36.47;;;33.50;;
15198;SDS011;7700;48.654;9.070;2023-12-14T11:43:03;29.90;;;27.42;;
15198;SDS011;7700;48.654;9.070;2023-12-14T11:45:36;38.55;;;34.72;;
15198;SDS011;7700;48.654;9.070;2023-12-14T11:48:12;34.60;;;31.40;;
15198;SDS011;7700;48.654;9.070;2023-12-14T11:50:38;32.80;;;30.07;;
15198;SDS011;7700;48.654;9.070;2023-12-14T11:53:05;32.90;;;29.87;;
15198;SDS011;7700;48.654;9.070;2023-12-14T11:55:31;31.00;;;28.27;;
15198;SDS011;7700;48.654;9.070;2023-12-14T11:57:57;30.70;;;27.77;;
15198;SDS011;7700;48.654;9.070;2023-12-14T12:00:27;24.50;;;22.03;;
15198;SDS011;7700;48.654;9.070;2023-12-14T12:03:07;28.77;;;25.93;;
15198;SDS011;7700;48.654;9.070;2023-12-14T12:05:45;28.27;;;26.17;;
15198;SDS011;7700;48.654;9.070;2023-12-14T12:08:12;31.77;;;29.03;;
15198;SDS011;7700;48.654;9.070;2023-12-14T12:10:39;24.43;;;22.43;;
15198;SDS011;7700;48.654;9.070;2023-12-14T12:13:15;31.50;;;28.50;;
15198;SDS011;7700;48.654;9.070;2023-12-14T12:15:41;29.77;;;27.47;;
15198;SDS011;7700;48.654;9.070;2023-12-14T12:18:11;27.97;;;25.87;;
15198;SDS011;7700;48.654;9.070;2023-12-14T12:20:38;28.83;;;26.63;;
15198;SDS011;7700;48.654;9.070;2023-12-14T12:23:04;27.07;;;24.83;;
15198;SDS011;7700;48.654;9.070;2023-12-14T12:25:30;25.20;;;23.00;;
15198;SDS011;7700;48.654;9.070;2023-12-14T12:27:56;26.77;;;24.77;;
15198;SDS011;7700;48.654;9.070;2023-12-14T12:30:22;26.20;;;24.00;;
15198;SDS011;7700;48.654;9.070;2023-12-14T12:32:49;26.13;;;23.83;;
15198;SDS011;7700;48.654;9.070;2023-12-14T12:35:16;27.00;;;24.70;;
15198;SDS011;7700;48.654;9.070;2023-12-14T12:37:42;27.23;;;25.03;;
15198;SDS011;7700;48.654;9.070;2023-12-14T12:40:09;26.17;;;24.27;;
15198;SDS011;7700;48.654;9.070;2023-12-14T12:42:35;26.40;;;24.37;;
15198;SDS011;7700;48.654;9.070;2023-12-14T12:45:01;29.33;;;26.57;;
15198;SDS011;7700;48.654;9.070;2023-12-14T12:47:27;28.13;;;25.73;;
15198;SDS011;7700;48.654;9.070;2023-12-14T12:49:53;31.70;;;28.57;;
15198;SDS011;7700;48.654;9.070;2023-12-14T12:52:19;27.27;;;24.57;;
15198;SDS011;7700;48.654;9.070;2023-12-14T12:54:46;30.83;;;28.13;;
15198;SDS011;7700;48.654;9.070;2023-12-14T12:57:12;27.37;;;24.97;;
15198;SDS011;7700;48.654;9.070;2023-12-14T12:59:38;30.50;;;27.87;;
15198;SDS011;7700;48.654;9.070;2023-12-14T13:02:04;28.73;;;26.63;;
15198;SDS011;7700;48.654;9.070;2023-12-14T13:04:30;29.53;;;27.13;;
15198;SDS011;7700;48.654;9.070;2023-12-14T13:06:56;27.80;;;25.50;;
15198;SDS011;7700;48.654;9.070;2023-12-14T13:09:22;29.23;;;26.83;;
15198;SDS011;7700;48.654;9.070;2023-12-14T13:11:49;29.10;;;26.80;;
15198;SDS011;7700;48.654;9.070;2023-12-14T13:14:15;27.23;;;25.03;;
15198;SDS011;7700;48.654;9.070;2023-12-14T13:16:41;27.00;;;24.40;;
15198;SDS011;7700;48.654;9.070;2023-12-14T13:19:08;29.73;;;27.23;;
15198;SDS011;7700;48.654;9.070;2023-12-14T13:21:34;25.07;;;22.63;;
15198;SDS011;7700;48.654;9.070;2023-12-14T13:24:00;25.00;;;22.87;;
15198;SDS011;7700;48.654;9.070;2023-12-14T13:26:26;26.67;;;24.27;;
15198;SDS011;7700;48.654;9.070;2023-12-14T13:28:52;26.67;;;24.33;;
15198;SDS011;7700;48.654;9.070;2023-12-14T13:31:18;31.23;;;28.60;;
15198;SDS011;7700;48.654;9.070;2023-12-14T13:33:45;28.93;;;26.53;;
15198;SDS011;7700;48.654;9.070;2023-12-14T13:36:11;26.47;;;24.27;;
15198;SDS011;7700;48.654;9.070;2023-12-14T13:38:38;28.47;;;26.23;;
15198;SDS011;7700;48.654;9.070;2023-12-14T13:41:04;22.87;;;20.87;;
15198;SDS011;7700;48.654;9.070;2023-12-14T13:43:30;27.47;;;25.07;;
15198;SDS011;7700;48.654;9.070;2023-12-14T13:45:56;31.03;;;28.50;;
15198;SDS011;7700;48.654;9.070;2023-12-14T13:48:25;28.77;;;26.27;;
15198;SDS011;7700;48.654;9.070;2023-12-14T13:50:52;31.20;;;28.67;;
15198;SDS011;7700;48.654;9.070;2023-12-14T13:53:18;31.80;;;29.47;;
15198;SDS011;7700;48.654;9.070;2023-12-14T13:55:44;28.43;;;26.20;;
15198;SDS011;7700;48.654;9.070;2023-12-14T13:58:11;26.87;;;24.67;;
15198;SDS011;7700;48.654;9.070;2023-12-14T14:00:37;25.37;;;23.17;;
15198;SDS011;7700;48.654;9.070;2023-12-14T14:03:03;25.87;;;23.50;;
15198;SDS011;7700;48.654;9.070;2023-12-14T14:05:30;29.33;;;26.93;;
15198;SDS011;7700;48.654;9.070;2023-12-14T14:07:56;23.83;;;21.73;;
15198;SDS011;7700;48.654;9.070;2023-12-14T14:10:22;28.33;;;26.03;;
15198;SDS011;7700;48.654;9.070;2023-12-14T14:12:48;26.83;;;24.73;;
15198;SDS011;7700;48.654;9.070;2023-12-14T14:15:14;25.70;;;23.80;;
15198;SDS011;7700;48.654;9.070;2023-12-14T14:17:40;25.23;;;23.43;;
15198;SDS011;7700;48.654;9.070;2023-12-14T14:20:06;26.47;;;24.73;;
15198;SDS011;7700;48.654;9.070;2023-12-14T14:22:34;27.77;;;25.77;;
15198;SDS011;7700;48.654;9.070;2023-12-14T14:25:00;24.23;;;22.43;;
15198;SDS011;7700;48.654;9.070;2023-12-14T14:27:26;28.33;;;26.33;;
15198;SDS011;7700;48.654;9.070;2023-12-14T14:29:52;25.33;;;23.30;;
15198;SDS011;7700;48.654;9.070;2023-12-14T14:32:20;28.60;;;26.70;;
15198;SDS011;7700;48.654;9.070;2023-12-14T14:34:46;22.47;;;20.77;;
15198;SDS011;7700;48.654;9.070;2023-12-14T14:37:12;20.77;;;19.40;;
15198;SDS011;7700;48.654;9.070;2023-12-14T14:39:38;19.13;;;17.80;;
15198;SDS011;7700;48.654;9.070;2023-12-14T14:42:08;18.20;;;17.17;;
15198;SDS011;7700;48.654;9.070;2023-12-14T14:44:34;18.30;;;17.23;;
15198;SDS011;7700;48.654;9.070;2023-12-14T14:46:59;17.07;;;15.73;;
15198;SDS011;7700;48.654;9.070;2023-12-14T14:49:26;18.07;;;16.90;;